Time;durP1;ratioP1;P1;durP2;ratioP2;P2;SDS_P1;SDS_P2;PMS_P1;PMS_P2;Temp;Humidity;BMP_temperature;BMP_pressure;BME280_temperature;BME280_humidity;BME280_pressure;Samples;Min_cycle;Max_cycle;Signal;HPM_P1;HPM_P2
2023/04/19 00:01:33;;;;;;;65.17;11.20;;;;;;;;;;5074006;28;20463;-68
2023/04/19 00:04:01;;;;;;;66.43;10.33;;;;;;;;;;5073800;28;20496;-68
2023/04/19 00:06:29;;;;;;;66.37;10.80;;;;;;;;;;5073733;28;20463;-68
2023/04/19 00:08:57;;;;;;;64.53;10.27;;;;;;;;;;5073535;28;20499;-68
2023/04/19 00:11:25;;;;;;;67.33;11.80;;;;;;;;;;5073848;28;20539;-68
2023/04/19 00:13:52;;;;;;;67.57;11.23;;;;;;;;;;5073708;28;20447;-68
2023/04/19 00:16:19;;;;;;;68.30;12.00;;;;;;;;;;5073605;28;20447;-68
2023/04/19 00:18:47;;;;;;;67.67;11.73;;;;;;;;;;5073226;28;20983;-68
2023/04/19 00:21:14;;;;;;;68.13;11.60;;;;;;;;;;5073499;28;20459;-68
2023/04/19 00:23:41;;;;;;;68.10;11.70;;;;;;;;;;5072596;28;20459;-68
2023/04/19 00:26:10;;;;;;;68.30;12.00;;;;;;;;;;5073797;28;20533;-68
2023/04/19 00:28:37;;;;;;;68.60;12.97;;;;;;;;;;5072874;28;20492;-68
2023/04/19 00:31:04;;;;;;;69.97;12.97;;;;;;;;;;5073247;28;20448;-68
2023/04/19 00:33:31;;;;;;;68.13;12.40;;;;;;;;;;5073423;28;20456;-67
2023/04/19 00:35:58;;;;;;;68.60;12.27;;;;;;;;;;5072400;28;20447;-68
2023/04/19 00:38:26;;;;;;;74.80;12.33;;;;;;;;;;5072726;28;20463;-68
2023/04/19 00:40:53;;;;;;;69.77;12.00;;;;;;;;;;5073000;28;20955;-68
2023/04/19 00:43:21;;;;;;;67.70;12.13;;;;;;;;;;5073081;28;20458;-67
2023/04/19 00:45:48;;;;;;;73.40;12.47;;;;;;;;;;5073029;28;20459;-68
2023/04/19 00:48:15;;;;;;;69.30;13.00;;;;;;;;;;5072756;28;20487;-68
2023/04/19 00:50:43;;;;;;;68.10;12.50;;;;;;;;;;5072544;28;21023;-68
2023/04/19 00:53:11;;;;;;;68.10;11.53;;;;;;;;;;5072382;28;20447;-68
2023/04/19 00:55:39;;;;;;;70.93;12.83;;;;;;;;;;5072447;28;20455;-68
2023/04/19 00:58:06;;;;;;;70.13;12.23;;;;;;;;;;5072394;28;20444;-67
2023/04/19 01:00:35;;;;;;;70.50;13.67;;;;;;;;;;5072469;28;20512;-68
2023/04/19 01:03:02;;;;;;;69.77;12.93;;;;;;;;;;5072780;28;20451;-68
2023/04/19 01:05:29;;;;;;;68.50;11.80;;;;;;;;;;5072634;28;20459;-68
2023/04/19 01:07:56;;;;;;;70.90;12.70;;;;;;;;;;5072608;28;21011;-68
2023/04/19 01:10:23;;;;;;;67.53;11.07;;;;;;;;;;5072273;28;20463;-67
2023/04/19 01:12:50;;;;;;;71.00;13.13;;;;;;;;;;5072519;28;20443;-68
2023/04/19 01:15:18;;;;;;;68.80;11.93;;;;;;;;;;5072901;28;20473;-68
2023/04/19 01:17:46;;;;;;;71.67;12.50;;;;;;;;;;5072296;28;20978;-67
2023/04/19 01:20:14;;;;;;;68.10;12.80;;;;;;;;;;5072028;28;20626;-68
2023/04/19 01:22:42;;;;;;;69.03;13.10;;;;;;;;;;5072082;28;20940;-68
2023/04/19 01:25:10;;;;;;;70.27;11.80;;;;;;;;;;5072205;28;20455;-68
2023/04/19 01:27:37;;;;;;;70.30;11.97;;;;;;;;;;5072293;28;20495;-68
2023/04/19 01:30:05;;;;;;;66.60;11.27;;;;;;;;;;5071955;28;20474;-68
2023/04/19 01:32:32;;;;;;;66.97;11.43;;;;;;;;;;5071200;28;20782;-68
2023/04/19 01:34:59;;;;;;;68.30;11.83;;;;;;;;;;5072650;28;20454;-68
2023/04/19 01:37:26;;;;;;;67.90;11.97;;;;;;;;;;5071740;28;20443;-68
2023/04/19 01:39:54;;;;;;;69.33;12.13;;;;;;;;;;5071883;28;21007;-68
2023/04/19 01:42:21;;;;;;;71.30;13.63;;;;;;;;;;5072219;28;20451;-68
2023/04/19 01:44:49;;;;;;;68.77;12.20;;;;;;;;;;5071990;28;20459;-68
2023/04/19 01:47:16;;;;;;;68.90;11.67;;;;;;;;;;5071498;28;20847;-68
2023/04/19 01:49:43;;;;;;;69.40;12.07;;;;;;;;;;5071497;28;20463;-68
2023/04/19 01:52:10;;;;;;;70.00;12.77;;;;;;;;;;5072195;28;20827;-67
2023/04/19 01:54:37;;;;;;;71.60;12.80;;;;;;;;;;5071892;28;20451;-68
2023/04/19 01:57:05;;;;;;;70.23;13.23;;;;;;;;;;5071820;28;20458;-68
2023/04/19 01:59:32;;;;;;;71.83;13.60;;;;;;;;;;5071457;28;20467;-68
2023/04/19 02:02:00;;;;;;;69.37;14.23;;;;;;;;;;5071713;28;20454;-68
2023/04/19 02:04:27;;;;;;;70.10;13.30;;;;;;;;;;5072240;28;20450;-68
2023/04/19 02:06:54;;;;;;;69.40;13.10;;;;;;;;;;5071973;28;20447;-68
2023/04/19 02:09:21;;;;;;;72.17;14.37;;;;;;;;;;5071269;28;21100;-68
2023/04/19 02:11:48;;;;;;;70.60;13.67;;;;;;;;;;5071899;28;20445;-68
2023/04/19 02:14:17;;;;;;;68.27;12.90;;;;;;;;;;5071755;28;20451;-68
2023/04/19 02:16:44;;;;;;;68.67;13.30;;;;;;;;;;5071586;28;20450;-67
2023/04/19 02:19:11;;;;;;;68.50;12.83;;;;;;;;;;5071305;28;20463;-68
2023/04/19 02:21:38;;;;;;;71.90;13.37;;;;;;;;;;5071847;28;20444;-67
2023/04/19 02:24:05;;;;;;;73.30;15.00;;;;;;;;;;5071904;28;20459;-68
2023/04/19 02:26:32;;;;;;;72.10;14.50;;;;;;;;;;5071863;28;20455;-68
2023/04/19 02:28:59;;;;;;;70.10;13.70;;;;;;;;;;5071451;28;20517;-68
2023/04/19 02:31:28;;;;;;;72.20;13.47;;;;;;;;;;5071648;28;20443;-68
2023/04/19 02:33:55;;;;;;;71.20;14.43;;;;;;;;;;5071783;28;20538;-68
2023/04/19 02:36:22;;;;;;;70.10;13.97;;;;;;;;;;5071635;28;20443;-67
2023/04/19 02:38:49;;;;;;;69.57;13.00;;;;;;;;;;5071052;28;20472;-68
2023/04/19 02:41:16;;;;;;;71.53;13.97;;;;;;;;;;5071451;28;20435;-67
2023/04/19 02:43:43;;;;;;;71.10;14.20;;;;;;;;;;5071407;28;20443;-68
2023/04/19 02:46:10;;;;;;;69.47;13.03;;;;;;;;;;5071603;28;20827;-68
2023/04/19 02:48:39;;;;;;;68.90;13.43;;;;;;;;;;5070772;28;20494;-68
2023/04/19 02:51:06;;;;;;;71.30;14.03;;;;;;;;;;5071459;28;20444;-68
2023/04/19 02:53:34;;;;;;;69.13;12.60;;;;;;;;;;5071493;28;20443;-68
2023/04/19 02:56:02;;;;;;;73.37;13.60;;;;;;;;;;5071496;28;20459;-67
2023/04/19 02:58:29;;;;;;;67.70;12.43;;;;;;;;;;5071177;28;20463;-67
2023/04/19 03:00:56;;;;;;;70.53;12.60;;;;;;;;;;5075283;28;20455;-68
2023/04/19 03:03:23;;;;;;;71.33;13.03;;;;;;;;;;5075114;28;20943;-68
2023/04/19 03:05:51;;;;;;;69.13;12.97;;;;;;;;;;5075131;28;20443;-68
2023/04/19 03:08:18;;;;;;;68.70;12.40;;;;;;;;;;5074714;28;20890;-68
2023/04/19 03:10:45;;;;;;;69.27;14.37;;;;;;;;;;5074575;28;20451;-68
2023/04/19 03:13:12;;;;;;;67.60;13.13;;;;;;;;;;5075092;28;20448;-68
2023/04/19 03:15:40;;;;;;;69.23;12.67;;;;;;;;;;5075209;28;20447;-68
2023/04/19 03:18:07;;;;;;;71.90;14.37;;;;;;;;;;5074805;28;20559;-68
2023/04/19 03:20:34;;;;;;;71.17;13.97;;;;;;;;;;5074461;28;20944;-68
2023/04/19 03:23:02;;;;;;;70.60;15.00;;;;;;;;;;5074679;28;20459;-67
2023/04/19 03:25:29;;;;;;;72.30;15.60;;;;;;;;;;5074460;28;20466;-67
2023/04/19 03:27:57;;;;;;;70.53;13.40;;;;;;;;;;5074686;28;20498;-68
2023/04/19 03:30:24;;;;;;;72.80;15.10;;;;;;;;;;5074174;28;20474;-68
2023/04/19 03:32:51;;;;;;;70.00;14.10;;;;;;;;;;5074748;28;20448;-68
2023/04/19 03:35:19;;;;;;;70.70;14.00;;;;;;;;;;5075010;28;20443;-68
2023/04/19 03:37:46;;;;;;;73.47;14.80;;;;;;;;;;5074390;28;20959;-67
2023/04/19 03:40:15;;;;;;;70.70;14.00;;;;;;;;;;5074371;28;20466;-67
2023/04/19 03:42:42;;;;;;;72.63;14.47;;;;;;;;;;5074513;28;20828;-68
2023/04/19 03:45:09;;;;;;;72.37;15.33;;;;;;;;;;5074437;28;20443;-68
2023/04/19 03:47:36;;;;;;;74.80;16.20;;;;;;;;;;5074396;28;20462;-67
2023/04/19 03:50:04;;;;;;;73.17;14.63;;;;;;;;;;5073933;28;20467;-68
2023/04/19 03:52:31;;;;;;;73.70;16.17;;;;;;;;;;5074076;28;21038;-68
2023/04/19 03:54:58;;;;;;;73.20;14.80;;;;;;;;;;5074273;28;20447;-67
2023/04/19 03:57:26;;;;;;;74.40;16.10;;;;;;;;;;5074262;28;20445;-67
2023/04/19 03:59:53;;;;;;;78.17;17.10;;;;;;;;;;5073734;28;20475;-68
2023/04/19 04:02:21;;;;;;;73.50;15.73;;;;;;;;;;5069370;28;20456;-67
2023/04/19 04:04:48;;;;;;;72.97;16.20;;;;;;;;;;5054846;28;20548;-68
2023/04/19 04:07:15;;;;;;;75.00;17.20;;;;;;;;;;5054808;28;20448;-67
2023/04/19 04:09:42;;;;;;;74.20;16.17;;;;;;;;;;5056466;28;20570;-67
2023/04/19 04:12:09;;;;;;;71.90;15.23;;;;;;;;;;5063558;28;20820;-67
2023/04/19 04:14:38;;;;;;;77.10;16.50;;;;;;;;;;5053672;28;20452;-67
2023/04/19 04:17:05;;;;;;;76.07;17.50;;;;;;;;;;5053780;28;20444;-68
2023/04/19 04:19:32;;;;;;;81.00;17.10;;;;;;;;;;5053578;28;20460;-68
2023/04/19 04:21:59;;;;;;;72.53;16.13;;;;;;;;;;5053733;28;20960;-68
2023/04/19 04:24:26;;;;;;;74.90;16.80;;;;;;;;;;5053510;28;20465;-68
2023/04/19 04:26:54;;;;;;;76.77;16.93;;;;;;;;;;5053595;28;20555;-68
2023/04/19 04:29:21;;;;;;;76.17;16.07;;;;;;;;;;5053120;28;20523;-67
2023/04/19 04:31:49;;;;;;;73.10;16.23;;;;;;;;;;5053506;28;20450;-68
2023/04/19 04:34:16;;;;;;;77.63;16.13;;;;;;;;;;5053238;28;20540;-68
2023/04/19 04:36:43;;;;;;;75.77;16.73;;;;;;;;;;5053488;28;20452;-67
2023/04/19 04:39:11;;;;;;;73.30;16.93;;;;;;;;;;5052995;28;20917;-68
2023/04/19 04:41:41;;;;;;;78.53;16.87;;;;;;;;;;5053237;28;20452;-68
2023/04/19 04:44:08;;;;;;;76.20;17.57;;;;;;;;;;5053324;28;20919;-68
2023/04/19 04:46:35;;;;;;;73.40;16.93;;;;;;;;;;5053051;28;20988;-67
2023/04/19 04:49:04;;;;;;;75.90;16.50;;;;;;;;;;5052387;28;20495;-68
2023/04/19 04:51:31;;;;;;;76.77;17.33;;;;;;;;;;5053144;28;20452;-68
2023/04/19 04:53:58;;;;;;;75.73;16.50;;;;;;;;;;5052433;28;20448;-68
2023/04/19 04:56:26;;;;;;;75.50;17.40;;;;;;;;;;5052940;28;20460;-68
2023/04/19 04:58:53;;;;;;;73.97;15.90;;;;;;;;;;5052620;28;20465;-67
2023/04/19 05:01:20;;;;;;;73.13;16.57;;;;;;;;;;5052665;28;20452;-67
2023/04/19 05:03:48;;;;;;;77.60;17.10;;;;;;;;;;5052666;28;20452;-68
2023/04/19 05:06:16;;;;;;;74.90;16.57;;;;;;;;;;5052748;28;20452;-68
2023/04/19 05:08:43;;;;;;;73.73;17.00;;;;;;;;;;5051738;28;20491;-68
2023/04/19 05:11:10;;;;;;;76.03;16.93;;;;;;;;;;5052694;28;20448;-68
2023/04/19 05:13:37;;;;;;;77.00;17.30;;;;;;;;;;5052484;28;20458;-68
2023/04/19 05:16:04;;;;;;;74.30;17.17;;;;;;;;;;5052485;28;20470;-68
2023/04/19 05:18:32;;;;;;;73.43;16.33;;;;;;;;;;5052363;28;20468;-67
2023/04/19 05:20:59;;;;;;;75.37;16.00;;;;;;;;;;5052406;28;20444;-67
2023/04/19 05:23:27;;;;;;;77.30;17.10;;;;;;;;;;5051099;28;21003;-67
2023/04/19 05:25:54;;;;;;;73.37;16.23;;;;;;;;;;5051809;28;20455;-67
2023/04/19 05:28:21;;;;;;;72.67;15.57;;;;;;;;;;5052034;28;20468;-67
2023/04/19 05:30:49;;;;;;;74.50;17.13;;;;;;;;;;5052200;28;20452;-68
2023/04/19 05:33:16;;;;;;;71.80;15.07;;;;;;;;;;5052514;28;20447;-67
2023/04/19 05:35:43;;;;;;;75.50;16.57;;;;;;;;;;5051968;28;20448;-67
2023/04/19 05:38:10;;;;;;;76.70;17.30;;;;;;;;;;5051466;28;20820;-68
2023/04/19 05:40:38;;;;;;;74.70;15.30;;;;;;;;;;5051433;28;20451;-68
2023/04/19 05:43:06;;;;;;;74.87;15.90;;;;;;;;;;5052415;28;20484;-68
2023/04/19 05:45:33;;;;;;;74.83;15.70;;;;;;;;;;5052055;28;20622;-68
2023/04/19 05:48:00;;;;;;;78.90;16.40;;;;;;;;;;5052075;28;20444;-67
2023/04/19 05:50:27;;;;;;;77.70;16.80;;;;;;;;;;5051801;28;20492;-67
2023/04/19 05:52:54;;;;;;;72.63;15.60;;;;;;;;;;5051940;28;20820;-68
2023/04/19 05:55:21;;;;;;;73.40;15.77;;;;;;;;;;5051777;28;20454;-68
2023/04/19 05:57:50;;;;;;;71.27;14.83;;;;;;;;;;5052035;28;20813;-68
2023/04/19 06:00:18;;;;;;;70.77;13.83;;;;;;;;;;5051465;28;21080;-67
2023/04/19 06:02:45;;;;;;;73.07;15.30;;;;;;;;;;5051972;28;20452;-68
2023/04/19 06:05:12;;;;;;;72.53;14.90;;;;;;;;;;5051809;28;20513;-67
2023/04/19 06:07:39;;;;;;;70.90;14.33;;;;;;;;;;5051833;28;20455;-67
2023/04/19 06:10:07;;;;;;;73.10;15.00;;;;;;;;;;5051426;28;20484;-68
2023/04/19 06:12:34;;;;;;;72.77;15.33;;;;;;;;;;5051906;28;20448;-67
2023/04/19 06:15:03;;;;;;;73.57;15.97;;;;;;;;;;5051868;28;20456;-67
2023/04/19 06:17:30;;;;;;;74.50;15.10;;;;;;;;;;5051663;28;20452;-68
2023/04/19 06:19:57;;;;;;;73.80;15.90;;;;;;;;;;5051215;28;20468;-68
2023/04/19 06:22:24;;;;;;;72.30;14.10;;;;;;;;;;5051551;28;20487;-67
2023/04/19 06:24:51;;;;;;;67.70;13.10;;;;;;;;;;5051619;28;20471;-67
2023/04/19 06:27:18;;;;;;;70.80;14.63;;;;;;;;;;5051743;28;20478;-68
2023/04/19 06:29:46;;;;;;;71.30;13.87;;;;;;;;;;5051235;28;20559;-68
2023/04/19 06:32:14;;;;;;;72.80;12.33;;;;;;;;;;5051708;28;20455;-68
2023/04/19 06:34:41;;;;;;;67.07;12.40;;;;;;;;;;5053794;28;20455;-68
2023/04/19 06:37:09;;;;;;;70.53;14.87;;;;;;;;;;5055477;28;20450;-67
2023/04/19 06:39:36;;;;;;;70.57;13.90;;;;;;;;;;5055339;28;20487;-68
2023/04/19 06:42:04;;;;;;;69.50;13.03;;;;;;;;;;5055942;28;20941;-68
2023/04/19 06:44:31;;;;;;;70.23;12.67;;;;;;;;;;5055580;28;20455;-68
2023/04/19 06:46:58;;;;;;;68.20;13.07;;;;;;;;;;5055381;28;20452;-68
2023/04/19 06:49:27;;;;;;;71.13;12.60;;;;;;;;;;5055077;28;20491;-68
2023/04/19 06:51:54;;;;;;;69.27;12.37;;;;;;;;;;5055224;28;20450;-67
2023/04/19 06:54:21;;;;;;;67.90;12.80;;;;;;;;;;5055418;28;20450;-67
2023/04/19 06:56:48;;;;;;;70.10;14.70;;;;;;;;;;5055475;28;20791;-67
2023/04/19 06:59:16;;;;;;;67.80;12.13;;;;;;;;;;5054971;28;20470;-67
2023/04/19 07:01:44;;;;;;;66.97;11.93;;;;;;;;;;5055393;28;20513;-67
2023/04/19 07:04:11;;;;;;;68.50;13.17;;;;;;;;;;5054931;28;20448;-67
2023/04/19 07:06:40;;;;;;;67.40;12.30;;;;;;;;;;5055220;28;20455;-67
2023/04/19 07:09:08;;;;;;;69.00;12.70;;;;;;;;;;5059920;28;20486;-67
2023/04/19 07:11:35;;;;;;;69.87;12.87;;;;;;;;;;5074874;28;20451;-67
2023/04/19 07:14:02;;;;;;;68.47;13.37;;;;;;;;;;5074755;28;20451;-67
2023/04/19 07:16:29;;;;;;;68.97;13.37;;;;;;;;;;5074856;28;20823;-67
2023/04/19 07:18:56;;;;;;;68.43;12.00;;;;;;;;;;5074266;28;20463;-67
2023/04/19 07:21:27;;;;;;;69.50;12.10;;;;;;;;;;5074936;28;20451;-67
2023/04/19 07:23:55;;;;;;;68.57;12.70;;;;;;;;;;5074820;28;20559;-68
2023/04/19 07:26:22;;;;;;;65.07;10.67;;;;;;;;;;5074749;28;20821;-67
2023/04/19 07:28:50;;;;;;;67.70;11.97;;;;;;;;;;5074260;28;20473;-68
2023/04/19 07:31:17;;;;;;;67.30;11.53;;;;;;;;;;5074503;28;20452;-68
2023/04/19 07:33:44;;;;;;;67.47;11.67;;;;;;;;;;5074723;28;20819;-67
2023/04/19 07:36:12;;;;;;;67.63;11.40;;;;;;;;;;5074659;28;20546;-68
2023/04/19 07:38:39;;;;;;;67.07;11.40;;;;;;;;;;5074029;28;20473;-68
2023/04/19 07:41:07;;;;;;;66.37;11.87;;;;;;;;;;5074375;28;21097;-68
2023/04/19 07:43:34;;;;;;;71.77;11.63;;;;;;;;;;5074976;28;20931;-68
2023/04/19 07:46:02;;;;;;;66.07;11.23;;;;;;;;;;5073709;28;20447;-68
2023/04/19 07:48:29;;;;;;;67.70;10.30;;;;;;;;;;5074139;28;20463;-67
2023/04/19 07:50:56;;;;;;;65.47;9.30;;;;;;;;;;5074148;28;20494;-68
2023/04/19 07:53:23;;;;;;;64.20;9.70;;;;;;;;;;5074231;28;20448;-68
2023/04/19 07:55:50;;;;;;;65.93;10.40;;;;;;;;;;5074074;28;20448;-68
2023/04/19 07:58:18;;;;;;;63.83;9.00;;;;;;;;;;5073839;28;20497;-68
2023/04/19 08:00:45;;;;;;;67.80;10.70;;;;;;;;;;5073744;28;20925;-68
2023/04/19 08:03:13;;;;;;;65.07;9.60;;;;;;;;;;5074190;28;20448;-68
2023/04/19 08:05:40;;;;;;;63.37;9.40;;;;;;;;;;5074071;28;20448;-68
2023/04/19 08:08:07;;;;;;;65.80;10.07;;;;;;;;;;5073847;28;20452;-68
2023/04/19 08:10:34;;;;;;;67.40;10.50;;;;;;;;;;5073714;28;20479;-68
2023/04/19 08:13:02;;;;;;;67.10;10.70;;;;;;;;;;5073771;28;20458;-68
2023/04/19 08:15:30;;;;;;;64.90;10.77;;;;;;;;;;5073956;28;20452;-68
2023/04/19 08:17:57;;;;;;;65.17;10.07;;;;;;;;;;5073563;28;20951;-68
2023/04/19 08:20:25;;;;;;;65.87;9.90;;;;;;;;;;5073356;28;20475;-68
2023/04/19 08:22:53;;;;;;;64.80;9.67;;;;;;;;;;5073570;28;20970;-68
2023/04/19 08:25:20;;;;;;;63.70;9.87;;;;;;;;;;5073391;28;20463;-68
2023/04/19 08:27:47;;;;;;;63.80;9.83;;;;;;;;;;5073555;28;20452;-69
2023/04/19 08:30:14;;;;;;;64.40;9.33;;;;;;;;;;5073152;28;20495;-67
2023/04/19 08:32:43;;;;;;;66.93;10.33;;;;;;;;;;5073541;28;20502;-68
2023/04/19 08:35:10;;;;;;;65.10;10.40;;;;;;;;;;5073255;28;20451;-67
2023/04/19 08:37:37;;;;;;;63.80;9.20;;;;;;;;;;5073104;28;20548;-68
2023/04/19 08:40:05;;;;;;;64.73;10.30;;;;;;;;;;5072289;28;20460;-69
2023/04/19 08:42:32;;;;;;;64.90;9.53;;;;;;;;;;5073184;28;20454;-68
2023/04/19 08:45:02;;;;;;;64.73;9.87;;;;;;;;;;5073455;28;20448;-68
2023/04/19 08:47:29;;;;;;;64.80;9.93;;;;;;;;;;5073026;28;20456;-68
2023/04/19 08:49:58;;;;;;;62.77;9.10;;;;;;;;;;5072636;28;20494;-68
2023/04/19 08:52:25;;;;;;;65.77;9.70;;;;;;;;;;5073123;28;20958;-68
2023/04/19 08:54:53;;;;;;;63.57;9.07;;;;;;;;;;5072867;28;20450;-68
2023/04/19 08:57:20;;;;;;;64.80;9.70;;;;;;;;;;5072077;28;20458;-69
2023/04/19 08:59:50;;;;;;;63.67;9.40;;;;;;;;;;5072564;28;20489;-68
2023/04/19 09:02:18;;;;;;;64.70;9.90;;;;;;;;;;5072743;28;20452;-68
2023/04/19 09:04:45;;;;;;;64.50;9.70;;;;;;;;;;5072690;28;20505;-68
2023/04/19 09:07:24;;;;;;;67.03;9.83;;;;;;;;;;5072809;28;20512;-68
2023/04/19 09:10:05;;;;;;;64.00;9.40;;;;;;;;;;5072125;28;20486;-68
2023/04/19 09:12:33;;;;;;;63.83;9.60;;;;;;;;;;5072734;28;20447;-68
2023/04/19 09:15:01;;;;;;;65.37;10.20;;;;;;;;;;5072515;28;20978;-69
2023/04/19 09:17:28;;;;;;;67.63;9.57;;;;;;;;;;5072377;28;20498;-69
2023/04/19 09:19:55;;;;;;;65.27;10.90;;;;;;;;;;5072132;28;20472;-68
2023/04/19 09:22:22;;;;;;;64.13;10.20;;;;;;;;;;5072593;28;20447;-68
2023/04/19 09:24:51;;;;;;;65.93;10.63;;;;;;;;;;5072438;28;20455;-68
2023/04/19 09:27:26;;;;;;;66.93;10.67;;;;;;;;;;5068759;28;20832;-68
2023/04/19 09:29:54;;;;;;;65.20;10.40;;;;;;;;;;5071939;28;20478;-68
2023/04/19 09:32:21;;;;;;;63.17;8.77;;;;;;;;;;5071854;28;20496;-68
2023/04/19 09:34:52;;;;;;;65.97;10.53;;;;;;;;;;5071990;28;20823;-69
2023/04/19 09:37:19;;;;;;;65.00;10.27;;;;;;;;;;5072166;28;20451;-69
2023/04/19 09:39:47;;;;;;;63.40;9.83;;;;;;;;;;5071846;28;20816;-68
2023/04/19 09:42:16;;;;;;;65.00;9.30;;;;;;;;;;5072121;28;20458;-68
2023/04/19 09:44:43;;;;;;;65.87;9.73;;;;;;;;;;5071911;28;20500;-68
2023/04/19 09:47:25;;;;;;;65.37;10.20;;;;;;;;;;5072049;28;20887;-68
2023/04/19 09:50:08;;;;;;;63.40;9.23;;;;;;;;;;5069517;28;20491;-68
2023/04/19 09:52:35;;;;;;;63.00;8.70;;;;;;;;;;5072039;28;20449;-68
2023/04/19 09:55:04;;;;;;;63.97;9.67;;;;;;;;;;5071929;28;20447;-68
2023/04/19 09:57:32;;;;;;;64.10;9.60;;;;;;;;;;5072103;28;20450;-68
2023/04/19 10:00:00;;;;;;;63.40;9.23;;;;;;;;;;5071798;28;20894;-68
2023/04/19 10:02:31;;;;;;;65.70;9.10;;;;;;;;;;5071988;28;20827;-69
2023/04/19 10:04:58;;;;;;;63.80;9.27;;;;;;;;;;5071796;28;20497;-68
2023/04/19 10:07:25;;;;;;;64.40;9.50;;;;;;;;;;5071640;28;20539;-68
2023/04/19 10:09:55;;;;;;;63.97;9.27;;;;;;;;;;5071196;28;20467;-68
2023/04/19 10:12:24;;;;;;;64.10;9.07;;;;;;;;;;5072048;28;20542;-68
2023/04/19 10:14:53;;;;;;;65.23;9.43;;;;;;;;;;5071847;28;20455;-68
2023/04/19 10:17:20;;;;;;;67.97;10.73;;;;;;;;;;5071927;28;20443;-68
2023/04/19 10:19:47;;;;;;;64.53;9.83;;;;;;;;;;5071285;28;20473;-68
2023/04/19 10:22:15;;;;;;;68.00;9.93;;;;;;;;;;5071800;28;20473;-68
2023/04/19 10:25:02;;;;;;;65.47;9.30;;;;;;;;;;5071655;28;20465;-68
2023/04/19 10:27:29;;;;;;;63.97;10.07;;;;;;;;;;5071457;28;20501;-68
2023/04/19 10:29:59;;;;;;;65.00;9.97;;;;;;;;;;5071083;28;20846;-68
2023/04/19 10:32:27;;;;;;;65.33;10.50;;;;;;;;;;5071549;28;20979;-68
2023/04/19 10:34:55;;;;;;;65.53;10.40;;;;;;;;;;5072082;28;20766;-68
2023/04/19 10:37:24;;;;;;;63.53;9.50;;;;;;;;;;5071703;28;20447;-68
2023/04/19 10:39:51;;;;;;;64.57;9.73;;;;;;;;;;5071262;28;20473;-67
2023/04/19 10:42:18;;;;;;;63.97;9.60;;;;;;;;;;5071575;28;20444;-68
2023/04/19 10:45:00;;;;;;;65.93;10.60;;;;;;;;;;5071734;28;20850;-67
2023/04/19 10:47:42;;;;;;;67.67;9.93;;;;;;;;;;5071133;28;20479;-67
2023/04/19 10:50:11;;;;;;;65.43;10.60;;;;;;;;;;5070949;28;20510;-68
2023/04/19 10:52:38;;;;;;;65.30;10.10;;;;;;;;;;5071452;28;20448;-68
2023/04/19 10:55:06;;;;;;;65.00;10.83;;;;;;;;;;5071515;28;20447;-68
2023/04/19 10:57:48;;;;;;;64.07;10.47;;;;;;;;;;5071148;28;20956;-68
2023/04/19 11:00:19;;;;;;;65.10;11.10;;;;;;;;;;5070731;28;20549;-68
2023/04/19 11:02:46;;;;;;;64.97;10.80;;;;;;;;;;5071373;28;20439;-68
2023/04/19 11:05:15;;;;;;;66.20;11.33;;;;;;;;;;5071591;28;20950;-68
2023/04/19 11:07:42;;;;;;;65.00;10.33;;;;;;;;;;5071313;28;20443;-67
2023/04/19 11:10:11;;;;;;;67.10;9.43;;;;;;;;;;5070349;28;20463;-68
2023/04/19 11:12:38;;;;;;;65.73;11.20;;;;;;;;;;5071145;28;20521;-69
2023/04/19 11:15:08;;;;;;;66.93;10.70;;;;;;;;;;5071301;28;20448;-70
2023/04/19 11:17:37;;;;;;;64.77;10.10;;;;;;;;;;5071322;28;20447;-70
2023/04/19 11:20:05;;;;;;;64.53;10.40;;;;;;;;;;5071902;28;20471;-67
2023/04/19 11:22:34;;;;;;;67.07;11.00;;;;;;;;;;5074664;28;20448;-67
2023/04/19 11:25:09;;;;;;;64.53;10.17;;;;;;;;;;5074816;28;20461;-68
2023/04/19 11:27:36;;;;;;;68.87;11.17;;;;;;;;;;5074857;28;20450;-68
2023/04/19 11:30:04;;;;;;;65.03;10.87;;;;;;;;;;5074181;28;20478;-68
2023/04/19 11:32:32;;;;;;;67.20;11.47;;;;;;;;;;5074604;28;20451;-68
2023/04/19 11:35:06;;;;;;;67.60;12.23;;;;;;;;;;5074460;28;20452;-68
2023/04/19 11:37:34;;;;;;;69.80;13.80;;;;;;;;;;5074782;28;20486;-68
2023/04/19 11:40:02;;;;;;;69.07;13.13;;;;;;;;;;5074141;28;20467;-68
2023/04/19 11:42:29;;;;;;;72.50;13.63;;;;;;;;;;5074544;28;20444;-68
2023/04/19 11:44:58;;;;;;;69.47;14.20;;;;;;;;;;5074376;28;20451;-67
2023/04/19 11:47:26;;;;;;;69.37;13.53;;;;;;;;;;5074280;28;20491;-67
2023/04/19 11:49:55;;;;;;;71.07;14.60;;;;;;;;;;5073993;28;20486;-67
2023/04/19 11:52:23;;;;;;;70.90;15.23;;;;;;;;;;5074153;28;20483;-67
2023/04/19 11:54:52;;;;;;;70.67;15.67;;;;;;;;;;5074414;28;20448;-67
2023/04/19 11:57:27;;;;;;;78.10;15.80;;;;;;;;;;5074032;28;21006;-67
2023/04/19 12:00:07;;;;;;;74.27;16.67;;;;;;;;;;5073702;28;20524;-67
2023/04/19 12:02:37;;;;;;;75.23;16.57;;;;;;;;;;5074764;28;20447;-67
2023/04/19 12:05:08;;;;;;;70.47;15.43;;;;;;;;;;5074187;28;20819;-68
2023/04/19 12:07:36;;;;;;;74.13;17.70;;;;;;;;;;5074038;28;20455;-68
2023/04/19 12:10:10;;;;;;;73.13;16.23;;;;;;;;;;5073579;28;20474;-67
2023/04/19 12:12:38;;;;;;;75.70;17.07;;;;;;;;;;5073751;28;20550;-67
2023/04/19 12:15:05;;;;;;;77.57;17.37;;;;;;;;;;5074080;28;20481;-67
2023/04/19 12:17:32;;;;;;;73.50;17.90;;;;;;;;;;5073724;28;20459;-67
2023/04/19 12:19:59;;;;;;;74.87;18.50;;;;;;;;;;5073407;28;20471;-66
2023/04/19 12:22:27;;;;;;;72.20;16.07;;;;;;;;;;5073720;28;20449;-67
2023/04/19 12:24:54;;;;;;;76.87;17.30;;;;;;;;;;5073609;28;20482;-67
2023/04/19 12:27:24;;;;;;;73.27;16.37;;;;;;;;;;5073798;28;20505;-67
2023/04/19 12:29:51;;;;;;;77.47;18.00;;;;;;;;;;5073310;28;20479;-67
2023/04/19 12:32:18;;;;;;;73.00;17.50;;;;;;;;;;5072180;28;21042;-67
2023/04/19 12:34:46;;;;;;;73.37;16.23;;;;;;;;;;5073521;28;20463;-67
2023/04/19 12:37:13;;;;;;;77.27;17.20;;;;;;;;;;5073420;28;20450;-68
2023/04/19 12:39:40;;;;;;;75.57;16.43;;;;;;;;;;5072769;28;20467;-67
2023/04/19 12:42:07;;;;;;;77.50;17.97;;;;;;;;;;5073387;28;20439;-68
2023/04/19 12:44:35;;;;;;;74.13;16.90;;;;;;;;;;5073190;28;21055;-68
2023/04/19 12:47:03;;;;;;;77.27;18.20;;;;;;;;;;5073222;28;20444;-68
2023/04/19 12:49:30;;;;;;;75.80;15.97;;;;;;;;;;5072627;28;20996;-68
2023/04/19 12:51:57;;;;;;;72.80;15.70;;;;;;;;;;5073164;28;20487;-68
2023/04/19 12:54:24;;;;;;;73.00;14.63;;;;;;;;;;5072832;28;20449;-68
2023/04/19 12:56:51;;;;;;;71.90;13.50;;;;;;;;;;5073076;28;20458;-68
2023/04/19 12:59:18;;;;;;;70.10;14.20;;;;;;;;;;5072455;28;20983;-68
2023/04/19 13:01:47;;;;;;;69.17;13.20;;;;;;;;;;5072876;28;20447;-68
2023/04/19 13:04:14;;;;;;;73.40;13.30;;;;;;;;;;5072720;28;20940;-68
2023/04/19 13:06:41;;;;;;;70.67;13.27;;;;;;;;;;5072817;28;20470;-68
2023/04/19 13:09:08;;;;;;;72.60;13.00;;;;;;;;;;5072492;28;20467;-68
2023/04/19 13:11:35;;;;;;;67.57;12.40;;;;;;;;;;5072668;28;20483;-68
2023/04/19 13:14:02;;;;;;;66.50;11.50;;;;;;;;;;5072612;28;20966;-67
2023/04/19 13:16:29;;;;;;;69.83;11.47;;;;;;;;;;5072570;28;20447;-68
2023/04/19 13:18:58;;;;;;;68.97;10.50;;;;;;;;;;5072214;28;20469;-68
2023/04/19 13:21:26;;;;;;;70.43;10.83;;;;;;;;;;5072354;28;20443;-68
2023/04/19 13:23:53;;;;;;;69.50;11.90;;;;;;;;;;5072452;28;20882;-68
2023/04/19 13:26:21;;;;;;;66.47;10.97;;;;;;;;;;5072451;28;20501;-68
2023/04/19 13:28:48;;;;;;;68.03;10.77;;;;;;;;;;5071898;28;21054;-68
2023/04/19 13:31:15;;;;;;;65.63;10.30;;;;;;;;;;5072283;28;20582;-68
2023/04/19 13:33:42;;;;;;;68.47;10.80;;;;;;;;;;5072116;28;20962;-68
2023/04/19 13:36:10;;;;;;;66.20;10.70;;;;;;;;;;5072166;28;20447;-68
2023/04/19 13:38:37;;;;;;;65.67;10.73;;;;;;;;;;5071890;28;20467;-68
2023/04/19 13:41:05;;;;;;;65.20;9.27;;;;;;;;;;5072201;28;20455;-68
2023/04/19 13:43:32;;;;;;;67.80;10.33;;;;;;;;;;5071822;28;20450;-68
2023/04/19 13:45:59;;;;;;;66.27;10.90;;;;;;;;;;5072037;28;20973;-68
2023/04/19 13:48:27;;;;;;;64.67;10.33;;;;;;;;;;5071909;28;20980;-68
2023/04/19 13:50:54;;;;;;;65.97;10.67;;;;;;;;;;5071700;28;20550;-68
2023/04/19 13:53:23;;;;;;;67.50;9.93;;;;;;;;;;5071889;28;20458;-68
2023/04/19 13:55:51;;;;;;;69.20;10.43;;;;;;;;;;5072123;28;20443;-68
2023/04/19 13:58:18;;;;;;;64.67;10.03;;;;;;;;;;5071852;28;20447;-68
2023/04/19 14:00:47;;;;;;;65.67;11.13;;;;;;;;;;5072094;28;20811;-68
2023/04/19 14:03:14;;;;;;;63.17;8.83;;;;;;;;;;5072082;28;20444;-71
2023/04/19 14:05:41;;;;;;;65.07;10.10;;;;;;;;;;5071823;28;20509;-69
2023/04/19 14:08:08;;;;;;;67.27;10.00;;;;;;;;;;5071851;28;20451;-69
2023/04/19 14:10:37;;;;;;;67.00;10.60;;;;;;;;;;5071537;28;20454;-69
2023/04/19 14:13:04;;;;;;;64.43;10.30;;;;;;;;;;5071770;28;21045;-68
2023/04/19 14:15:31;;;;;;;66.03;10.73;;;;;;;;;;5071638;28;20479;-69
2023/04/19 14:17:58;;;;;;;65.77;9.80;;;;;;;;;;5071950;28;20551;-69
2023/04/19 14:20:25;;;;;;;63.70;9.73;;;;;;;;;;5071588;28;20467;-68
2023/04/19 14:22:54;;;;;;;66.30;9.60;;;;;;;;;;5071931;28;20764;-69